createdAt,value
2019-06-26T00:01:02.343Z,56.31
2019-06-26T00:03:31.863Z,56.65
2019-06-26T00:06:01.147Z,56.60
2019-06-26T00:08:30.373Z,56.73
2019-06-26T00:10:59.761Z,56.88
2019-06-26T00:13:28.959Z,57.52
2019-06-26T00:15:58.511Z,56.96
2019-06-26T00:18:27.711Z,56.74
2019-06-26T00:20:56.952Z,56.72
2019-06-26T00:23:26.159Z,56.89
2019-06-26T00:25:55.415Z,57.05
2019-06-26T00:28:24.609Z,57.28
2019-06-26T00:30:53.856Z,57.42
2019-06-26T00:33:23.050Z,57.67
2019-06-26T00:35:52.444Z,57.80
2019-06-26T00:38:21.626Z,58.19
2019-06-26T00:40:50.890Z,58.06
2019-06-26T00:43:20.133Z,58.48
2019-06-26T00:45:49.328Z,58.70
2019-06-26T00:48:18.574Z,58.65
2019-06-26T00:50:47.774Z,58.83
2019-06-26T00:53:17.034Z,58.99
2019-06-26T00:55:46.215Z,59.08
2019-06-26T00:58:15.467Z,58.88
2019-06-26T01:00:48.370Z,58.72
2019-06-26T01:03:17.677Z,58.76
2019-06-26T01:05:46.864Z,58.82
2019-06-26T01:08:16.113Z,58.81
2019-06-26T01:10:45.419Z,58.97
2019-06-26T01:13:14.680Z,58.86
2019-06-26T01:15:43.965Z,58.94
2019-06-26T01:18:13.498Z,59.21
2019-06-26T01:20:42.748Z,59.17
2019-06-26T01:23:12.013Z,59.37
2019-06-26T01:25:41.257Z,59.19
2019-06-26T01:28:10.834Z,59.00
2019-06-26T01:30:40.060Z,58.92
2019-06-26T01:33:09.354Z,58.92
2019-06-26T01:35:38.518Z,59.05
2019-06-26T01:38:08.163Z,58.91
2019-06-26T01:40:37.358Z,58.65
2019-06-26T01:43:06.609Z,58.85
2019-06-26T01:45:35.860Z,58.85
2019-06-26T01:48:05.459Z,58.52
2019-06-26T01:50:34.685Z,58.37
2019-06-26T01:53:03.895Z,58.49
2019-06-26T01:55:33.155Z,58.08
2019-06-26T01:58:02.757Z,57.45
2019-06-26T02:00:32.139Z,57.40
2019-06-26T02:03:01.298Z,57.59
2019-06-26T02:05:30.539Z,57.44
2019-06-26T02:07:59.735Z,57.40
2019-06-26T02:10:28.983Z,57.37
2019-06-26T02:12:58.553Z,57.27
2019-06-26T02:15:27.797Z,57.12
2019-06-26T02:17:56.998Z,57.28
2019-06-26T02:20:26.201Z,56.67
2019-06-26T02:22:55.446Z,56.61
2019-06-26T02:25:24.692Z,56.47
2019-06-26T02:27:54.082Z,56.59
2019-06-26T02:30:23.735Z,56.71
2019-06-26T02:32:53.012Z,57.17
2019-06-26T02:35:22.187Z,57.19
2019-06-26T02:37:51.459Z,57.18
2019-06-26T02:40:21.037Z,56.92
2019-06-26T02:42:50.290Z,56.85
2019-06-26T02:45:19.533Z,56.67
2019-06-26T02:47:49.004Z,56.59
2019-06-26T02:50:18.266Z,56.39
2019-06-26T02:52:47.449Z,55.93
2019-06-26T02:55:16.695Z,56.00
2019-06-26T02:57:45.888Z,56.11
2019-06-26T03:00:15.256Z,56.39
2019-06-26T03:02:44.444Z,56.33
2019-06-26T03:05:14.022Z,56.37
2019-06-26T03:07:43.277Z,56.22
2019-06-26T03:10:13.106Z,56.23
2019-06-26T03:12:42.366Z,56.39
2019-06-26T03:15:11.669Z,56.53
2019-06-26T03:17:54.274Z,56.82
2019-06-26T03:20:11.948Z,56.90
2019-06-26T03:22:41.212Z,57.15
2019-06-26T03:25:10.789Z,57.15
2019-06-26T03:27:40.041Z,57.20
2019-06-26T03:30:10.140Z,57.65
2019-06-26T03:32:39.389Z,57.87
2019-06-26T03:35:09.334Z,58.07
2019-06-26T03:37:38.631Z,58.07
2019-06-26T03:40:09.232Z,58.08
2019-06-26T03:42:38.477Z,58.11
2019-06-26T03:45:24.102Z,58.02
2019-06-26T03:47:39.499Z,58.14
2019-06-26T03:50:09.552Z,58.40
2019-06-26T03:52:38.753Z,58.46
2019-06-26T03:55:08.193Z,58.42
2019-06-26T03:57:37.739Z,58.54
2019-06-26T04:00:08.969Z,58.77
2019-06-26T04:02:38.158Z,58.90
2019-06-26T04:05:07.610Z,58.61
2019-06-26T04:07:36.837Z,58.74
2019-06-26T04:10:06.941Z,58.65
2019-06-26T04:12:36.121Z,58.46
2019-06-26T04:15:05.854Z,58.37
2019-06-26T04:17:35.092Z,58.15
2019-06-26T04:20:05.207Z,57.87
2019-06-26T04:22:34.472Z,57.46
2019-06-26T04:25:03.693Z,56.85
2019-06-26T04:27:32.958Z,56.09
2019-06-26T04:30:02.191Z,55.82
2019-06-26T04:32:31.381Z,55.91
2019-06-26T04:35:00.750Z,56.06
2019-06-26T04:37:29.935Z,56.38
2019-06-26T04:39:59.177Z,55.55
2019-06-26T04:42:28.348Z,54.91
2019-06-26T04:44:57.636Z,54.47
2019-06-26T04:47:26.829Z,53.98
2019-06-26T04:49:56.031Z,54.08
2019-06-26T04:52:25.295Z,53.78
2019-06-26T04:54:54.481Z,53.82
2019-06-26T04:57:23.723Z,53.77
2019-06-26T04:59:52.923Z,53.76
2019-06-26T05:02:22.160Z,53.50
2019-06-26T05:04:51.361Z,53.22
2019-06-26T05:07:20.918Z,53.08
2019-06-26T05:09:50.119Z,51.33
2019-06-26T05:12:19.828Z,50.13
2019-06-26T05:14:49.015Z,50.67
2019-06-26T05:17:18.260Z,51.03
2019-06-26T05:19:47.449Z,51.33
2019-06-26T05:22:16.677Z,51.42
2019-06-26T05:24:46.619Z,51.69
2019-06-26T05:27:16.196Z,51.65
2019-06-26T05:29:45.403Z,51.89
2019-06-26T05:32:14.667Z,51.95
2019-06-26T05:34:43.860Z,51.78
2019-06-26T05:37:13.319Z,51.68
2019-06-26T05:39:42.567Z,51.46
2019-06-26T05:42:11.767Z,51.30
2019-06-26T05:44:41.083Z,51.02
2019-06-26T05:47:10.283Z,50.68
2019-06-26T05:49:40.248Z,50.80
2019-06-26T05:52:09.954Z,51.00
2019-06-26T05:54:39.224Z,50.97
2019-06-26T05:57:08.438Z,50.94
2019-06-26T05:59:37.705Z,50.89
2019-06-26T06:02:07.736Z,50.99
2019-06-26T06:04:37.299Z,50.82
2019-06-26T06:07:06.498Z,50.66
2019-06-26T06:09:35.793Z,50.61
2019-06-26T06:12:05.099Z,50.60
2019-06-26T06:14:34.334Z,49.38
2019-06-26T06:17:03.860Z,48.76
2019-06-26T06:19:33.138Z,48.53
2019-06-26T06:22:02.383Z,48.65
2019-06-26T06:24:31.972Z,48.92
2019-06-26T06:27:01.499Z,47.95
2019-06-26T06:29:30.950Z,47.51
2019-06-26T06:32:00.302Z,47.32
2019-06-26T06:34:29.503Z,47.44
2019-06-26T06:36:58.749Z,47.60
2019-06-26T06:39:27.942Z,47.54
2019-06-26T06:41:57.473Z,46.87
2019-06-26T06:44:26.674Z,46.03
2019-06-26T06:47:03.946Z,46.29
2019-06-26T06:49:27.172Z,46.70
2019-06-26T06:51:56.434Z,46.73
2019-06-26T06:54:25.681Z,46.83
2019-06-26T06:56:55.223Z,47.01
2019-06-26T06:59:25.329Z,46.96
2019-06-26T07:01:54.867Z,46.26
2019-06-26T07:04:24.453Z,46.28
2019-06-26T07:06:53.962Z,46.11
2019-06-26T07:09:23.225Z,46.18
2019-06-26T07:11:52.443Z,45.72
2019-06-26T07:14:21.654Z,45.70
2019-06-26T07:16:50.907Z,45.77
2019-06-26T07:19:20.465Z,45.19
2019-06-26T07:21:49.704Z,45.20
2019-06-26T07:24:18.966Z,45.61
2019-06-26T07:26:48.562Z,45.34
2019-06-26T07:29:17.771Z,45.01
2019-06-26T07:34:21.691Z,44.75
2019-06-26T07:36:50.958Z,44.70
2019-06-26T07:39:20.176Z,44.70
2019-06-26T07:41:49.434Z,44.41
2019-06-26T07:44:18.697Z,44.67
2019-06-26T07:46:48.034Z,44.85
2019-06-26T07:49:17.223Z,44.52
2019-06-26T07:54:20.915Z,43.96
2019-06-26T07:56:50.183Z,43.87
2019-06-26T07:59:19.419Z,43.98
2019-06-26T08:01:48.704Z,44.03
2019-06-26T08:04:18.033Z,44.04
2019-06-26T08:06:47.394Z,43.94
2019-06-26T08:09:17.078Z,44.22
2019-06-26T08:11:46.454Z,44.06
2019-06-26T08:14:15.668Z,44.09
2019-06-26T08:16:44.910Z,43.61
2019-06-26T08:19:14.385Z,43.26
2019-06-26T08:21:46.621Z,42.39
2019-06-26T08:24:14.585Z,42.77
2019-06-26T08:26:43.855Z,42.85
2019-06-26T08:29:13.538Z,42.83
2019-06-26T08:31:42.741Z,43.10
2019-06-26T08:34:12.001Z,43.03
2019-06-26T08:36:41.199Z,42.78
2019-06-26T08:39:10.448Z,42.26
2019-06-26T08:41:39.986Z,40.56
2019-06-26T08:44:09.583Z,40.85
2019-06-26T08:46:38.812Z,40.47
2019-06-26T08:49:24.451Z,39.21
2019-06-26T08:51:38.989Z,38.94
2019-06-26T08:54:08.841Z,39.63
2019-06-26T08:56:38.062Z,39.45
2019-06-26T08:59:07.641Z,39.45
2019-06-26T09:01:37.130Z,39.26
2019-06-26T09:04:06.388Z,38.79
2019-06-26T09:06:35.581Z,38.89
2019-06-26T09:09:07.603Z,39.12
2019-06-26T09:11:36.849Z,39.26
2019-06-26T09:14:06.286Z,39.29
2019-06-26T09:16:35.480Z,41.34
2019-06-26T09:19:04.838Z,40.51
2019-06-26T09:21:34.030Z,42.76
2019-06-26T09:24:03.597Z,41.90
2019-06-26T09:26:32.853Z,41.23
2019-06-26T09:29:02.045Z,39.42
2019-06-26T09:31:31.283Z,39.14
2019-06-26T09:34:00.845Z,38.99
2019-06-26T09:36:30.085Z,39.96
2019-06-26T09:38:59.285Z,40.72
2019-06-26T09:41:28.535Z,40.76
2019-06-26T09:43:57.744Z,40.63
2019-06-26T09:46:27.034Z,40.47
2019-06-26T09:48:56.236Z,40.61
2019-06-26T09:51:25.481Z,39.99
2019-06-26T09:53:54.692Z,39.64
2019-06-26T09:56:23.944Z,39.69
2019-06-26T09:58:53.142Z,39.69
2019-06-26T10:01:22.671Z,40.00
2019-06-26T10:03:51.864Z,40.06
2019-06-26T10:06:21.097Z,39.08
2019-06-26T10:08:53.956Z,39.09
2019-06-26T10:11:21.299Z,38.92
2019-06-26T10:13:50.465Z,38.69
2019-06-26T10:16:19.673Z,38.52
2019-06-26T10:18:48.901Z,38.50
2019-06-26T10:21:18.225Z,38.46
2019-06-26T10:23:47.469Z,37.59
2019-06-26T10:26:16.663Z,36.78
2019-06-26T10:28:45.934Z,36.98
2019-06-26T10:31:18.397Z,36.95
2019-06-26T10:33:46.111Z,36.37
2019-06-26T10:36:15.295Z,36.27
2019-06-26T10:38:44.564Z,36.28
2019-06-26T10:41:14.089Z,36.46
2019-06-26T10:43:43.472Z,36.46
2019-06-26T10:46:13.105Z,36.51
2019-06-26T10:48:42.370Z,35.96
2019-06-26T10:51:11.603Z,36.31
2019-06-26T10:53:40.890Z,36.27
2019-06-26T10:56:10.081Z,36.55
2019-06-26T10:58:39.396Z,36.54
2019-06-26T11:01:08.590Z,36.60
2019-06-26T11:03:38.636Z,36.25
2019-06-26T11:06:07.841Z,36.09
2019-06-26T11:08:37.079Z,36.70
2019-06-26T11:11:06.623Z,37.16
2019-06-26T11:13:35.898Z,37.14
2019-06-26T11:16:05.159Z,37.66
2019-06-26T11:18:34.533Z,38.35
2019-06-26T11:21:03.852Z,38.22
2019-06-26T11:23:33.040Z,38.44
2019-06-26T11:26:02.292Z,38.72
2019-06-26T11:28:31.559Z,39.05
2019-06-26T11:31:00.761Z,38.82
2019-06-26T11:33:29.957Z,38.63
2019-06-26T11:35:59.200Z,38.54
2019-06-26T11:38:28.483Z,39.46
2019-06-26T11:41:01.600Z,39.64
2019-06-26T11:43:28.766Z,39.61
2019-06-26T11:45:58.101Z,39.21
2019-06-26T11:48:27.297Z,39.47
2019-06-26T11:50:56.547Z,39.42
2019-06-26T11:53:25.784Z,39.42
2019-06-26T11:55:54.979Z,40.01
2019-06-26T11:58:24.149Z,39.91
2019-06-26T12:00:53.837Z,39.85
2019-06-26T12:03:23.047Z,39.31
2019-06-26T12:05:52.583Z,39.19
2019-06-26T12:08:22.299Z,39.39
2019-06-26T12:10:51.495Z,40.42
2019-06-26T12:13:20.969Z,40.56
2019-06-26T12:15:50.157Z,40.61
2019-06-26T12:18:19.431Z,39.92
2019-06-26T12:20:48.632Z,40.24
2019-06-26T12:23:17.901Z,40.63
2019-06-26T12:25:47.099Z,40.12
2019-06-26T12:28:16.365Z,40.31
2019-06-26T12:30:45.825Z,40.05
2019-06-26T12:33:15.531Z,39.36
2019-06-26T12:35:44.732Z,39.21
2019-06-26T12:38:13.985Z,39.03
2019-06-26T12:40:43.180Z,39.25
2019-06-26T12:43:12.361Z,39.20
2019-06-26T12:45:41.607Z,38.54
2019-06-26T12:48:10.880Z,38.29
2019-06-26T12:50:40.113Z,38.25
2019-06-26T12:53:09.311Z,38.15
2019-06-26T12:55:38.890Z,37.92
2019-06-26T12:58:13.915Z,37.99
2019-06-26T13:00:39.057Z,37.88
2019-06-26T13:03:08.241Z,37.56
2019-06-26T13:05:37.492Z,37.34
2019-06-26T13:08:06.685Z,36.97
2019-06-26T13:10:48.978Z,37.06
2019-06-26T13:13:06.842Z,37.46
2019-06-26T13:15:36.089Z,37.93
2019-06-26T13:18:05.294Z,37.44
2019-06-26T13:20:48.246Z,37.02
2019-06-26T13:23:05.441Z,36.55
2019-06-26T13:25:34.648Z,36.52
2019-06-26T13:28:03.897Z,36.73
2019-06-26T13:30:37.753Z,36.35
2019-06-26T13:33:07.004Z,35.94
2019-06-26T13:35:36.207Z,35.38
2019-06-26T13:38:05.769Z,35.69
2019-06-26T13:40:34.975Z,36.17
2019-06-26T13:43:04.221Z,35.85
2019-06-26T13:45:33.855Z,35.88
2019-06-26T13:48:03.123Z,36.08
2019-06-26T13:50:32.308Z,35.97
2019-06-26T13:53:01.563Z,35.92
2019-06-26T13:55:30.741Z,35.59
2019-06-26T13:57:59.981Z,35.42
2019-06-26T14:00:29.180Z,35.43
2019-06-26T14:02:58.427Z,34.11
2019-06-26T14:05:29.560Z,34.62
2019-06-26T14:07:58.579Z,34.52
2019-06-26T14:10:27.814Z,34.05
2019-06-26T14:12:57.083Z,33.78
2019-06-26T14:15:26.375Z,33.96
2019-06-26T14:17:55.580Z,32.67
2019-06-26T14:20:25.102Z,32.86
2019-06-26T14:22:54.288Z,32.82
2019-06-26T14:25:23.767Z,32.59
2019-06-26T14:27:52.970Z,31.75
2019-06-26T14:30:22.295Z,31.38
2019-06-26T14:32:51.488Z,31.77
2019-06-26T14:35:21.036Z,31.86
2019-06-26T14:37:50.224Z,31.93
2019-06-26T14:40:19.582Z,31.76
2019-06-26T14:42:48.795Z,31.36
2019-06-26T14:45:18.323Z,31.31
2019-06-26T14:47:47.564Z,31.07
2019-06-26T14:50:16.973Z,30.94
2019-06-26T14:52:46.253Z,31.13
2019-06-26T14:55:15.798Z,31.15
2019-06-26T14:57:45.044Z,30.82
2019-06-26T15:00:15.941Z,30.77
2019-06-26T15:02:45.245Z,30.81
2019-06-26T15:05:14.872Z,31.15
2019-06-26T15:07:44.410Z,30.79
2019-06-26T15:10:14.080Z,30.54
2019-06-26T15:12:43.664Z,30.86
2019-06-26T15:15:13.386Z,30.40
2019-06-26T15:17:43.065Z,30.17
2019-06-26T15:20:12.775Z,29.65
2019-06-26T15:22:42.342Z,29.56
2019-06-26T15:25:11.741Z,29.54
2019-06-26T15:27:40.991Z,29.64
2019-06-26T15:30:10.801Z,29.65
2019-06-26T15:32:40.078Z,29.71
2019-06-26T15:35:09.796Z,29.75
2019-06-26T15:37:38.985Z,28.83
2019-06-26T15:40:08.973Z,29.17
2019-06-26T15:42:38.162Z,28.81
2019-06-26T15:45:07.896Z,28.20
2019-06-26T15:47:37.145Z,28.07
2019-06-26T15:50:10.494Z,28.07
2019-06-26T15:52:38.097Z,28.66
2019-06-26T15:55:07.959Z,28.21
2019-06-26T15:57:37.131Z,27.85
2019-06-26T16:00:07.082Z,28.06
2019-06-26T16:02:36.428Z,27.81
2019-06-26T16:05:06.277Z,27.71
2019-06-26T16:07:35.463Z,28.10
2019-06-26T16:10:05.120Z,27.93
2019-06-26T16:12:34.319Z,27.99
2019-06-26T16:15:03.578Z,27.80
2019-06-26T16:17:50.431Z,27.90
2019-06-26T16:20:19.681Z,27.72
2019-06-26T16:22:48.860Z,27.81
2019-06-26T16:25:18.204Z,27.13
2019-06-26T16:28:03.954Z,27.15
2019-06-26T16:30:18.846Z,27.33
2019-06-26T16:32:48.035Z,27.18
2019-06-26T16:35:17.665Z,28.75
2019-06-26T16:37:46.869Z,27.83
2019-06-26T16:40:16.064Z,27.44
2019-06-26T16:42:45.301Z,27.47
2019-06-26T16:45:14.994Z,27.23
2019-06-26T16:47:44.288Z,27.04
2019-06-26T16:50:14.174Z,26.89
2019-06-26T16:52:48.997Z,26.13
2019-06-26T16:55:14.569Z,26.11
2019-06-26T16:57:43.918Z,25.43
2019-06-26T17:00:13.121Z,24.72
2019-06-26T17:02:42.302Z,24.63
2019-06-26T17:05:12.996Z,24.89
2019-06-26T17:07:42.198Z,25.42
2019-06-26T17:10:11.635Z,25.27
2019-06-26T17:12:40.828Z,24.72
2019-06-26T17:15:11.724Z,25.19
2019-06-26T17:17:40.949Z,25.09
2019-06-26T17:20:10.905Z,25.33
2019-06-26T17:22:40.477Z,25.39
2019-06-26T17:25:09.825Z,25.29
2019-06-26T17:27:39.001Z,25.70
2019-06-26T17:30:09.012Z,25.90
2019-06-26T17:32:38.608Z,25.89
2019-06-26T17:35:08.983Z,25.86
2019-06-26T17:37:38.498Z,26.39
2019-06-26T17:40:08.154Z,26.65
2019-06-26T17:42:37.416Z,27.01
2019-06-26T17:45:06.911Z,27.33
2019-06-26T17:47:36.152Z,27.49
2019-06-26T17:50:06.252Z,27.81
2019-06-26T17:52:38.250Z,28.25
2019-06-26T17:55:07.220Z,28.45
2019-06-26T17:57:36.415Z,28.72
2019-06-26T18:00:07.295Z,29.06
2019-06-26T18:02:36.570Z,29.49
2019-06-26T18:05:07.046Z,29.87
2019-06-26T18:07:36.231Z,30.28
2019-06-26T18:10:06.158Z,30.68
2019-06-26T18:12:35.345Z,31.07
2019-06-26T18:15:05.077Z,31.47
2019-06-26T18:17:34.279Z,31.75
2019-06-26T18:20:03.488Z,32.09
2019-06-26T18:22:32.720Z,32.49
2019-06-26T18:25:01.969Z,32.90
2019-06-26T18:27:31.643Z,33.20
2019-06-26T18:30:01.806Z,33.46
2019-06-26T18:32:31.416Z,33.83
2019-06-26T18:35:00.600Z,34.07
2019-06-26T18:37:30.260Z,34.05
2019-06-26T18:39:59.440Z,34.03
2019-06-26T18:42:28.956Z,33.93
2019-06-26T18:44:58.135Z,33.53
2019-06-26T18:47:27.416Z,33.55
2019-06-26T18:49:56.633Z,33.58
2019-06-26T18:52:25.865Z,33.88
2019-06-26T18:54:55.053Z,34.36
2019-06-26T18:57:24.291Z,34.70
2019-06-26T18:59:53.833Z,34.88
2019-06-26T19:02:23.127Z,35.17
2019-06-26T19:04:54.228Z,35.48
2019-06-26T19:07:23.240Z,35.81
2019-06-26T19:09:52.644Z,36.12
2019-06-26T19:12:22.175Z,36.37
2019-06-26T19:14:51.409Z,36.63
2019-06-26T19:17:21.006Z,36.79
2019-06-26T19:19:50.253Z,36.92
2019-06-26T19:22:19.456Z,37.08
2019-06-26T19:24:48.788Z,37.15
2019-06-26T19:27:18.028Z,37.22
2019-06-26T19:29:47.236Z,37.41
2019-06-26T19:32:16.423Z,37.42
2019-06-26T19:34:45.660Z,37.56
2019-06-26T19:37:15.173Z,37.80
2019-06-26T19:39:44.414Z,38.03
2019-06-26T19:42:13.728Z,38.00
2019-06-26T19:44:43.300Z,38.28
2019-06-26T19:47:12.511Z,38.68
2019-06-26T19:49:41.790Z,39.03
2019-06-26T19:52:11.409Z,39.68
2019-06-26T19:54:40.729Z,39.99
2019-06-26T19:57:09.996Z,40.29
2019-06-26T19:59:39.228Z,40.28
2019-06-26T20:02:08.476Z,40.21
2019-06-26T20:04:37.668Z,40.25
2019-06-26T20:07:06.945Z,40.29
2019-06-26T20:09:36.197Z,41.05
2019-06-26T20:12:05.507Z,40.83
2019-06-26T20:14:35.393Z,40.65
2019-06-26T20:17:04.665Z,40.51
2019-06-26T20:19:33.984Z,40.67
2019-06-26T20:22:03.189Z,40.92
2019-06-26T20:24:43.453Z,40.97
2019-06-26T20:27:03.733Z,41.17
2019-06-26T20:29:32.966Z,41.51
2019-06-26T20:32:02.444Z,41.66
2019-06-26T20:34:31.735Z,41.74
2019-06-26T20:37:00.939Z,41.90
2019-06-26T20:39:30.184Z,41.94
2019-06-26T20:41:59.370Z,41.95
2019-06-26T20:44:28.617Z,42.07
2019-06-26T20:46:57.858Z,42.16
2019-06-26T20:49:27.126Z,41.79
2019-06-26T20:51:56.316Z,41.45
2019-06-26T20:54:25.557Z,41.45
2019-06-26T20:56:55.042Z,41.35
2019-06-26T20:59:24.367Z,41.56
2019-06-26T21:01:53.624Z,41.83
2019-06-26T21:04:22.921Z,41.98
2019-06-26T21:06:52.750Z,42.26
2019-06-26T21:09:21.955Z,42.59
2019-06-26T21:11:51.231Z,42.71
2019-06-26T21:14:20.424Z,43.03
2019-06-26T21:16:49.690Z,43.31
2019-06-26T21:19:18.877Z,43.46
2019-06-26T21:21:48.134Z,43.72
2019-06-26T21:24:17.339Z,43.84
2019-06-26T21:26:46.640Z,43.88
2019-06-26T21:29:15.837Z,44.04
2019-06-26T21:31:45.037Z,44.14
2019-06-26T21:34:14.283Z,44.34
2019-06-26T21:36:43.496Z,44.42
2019-06-26T21:39:12.729Z,44.59
2019-06-26T21:41:42.010Z,44.55
2019-06-26T21:44:11.205Z,44.64
2019-06-26T21:46:40.515Z,44.94
2019-06-26T21:49:09.702Z,45.78
2019-06-26T21:51:38.960Z,45.80
2019-06-26T21:54:08.146Z,45.92
2019-06-26T21:56:37.385Z,45.60
2019-06-26T21:59:06.576Z,45.56
2019-06-26T22:01:35.819Z,45.75
2019-06-26T22:04:05.299Z,46.11
2019-06-26T22:06:34.540Z,46.53
2019-06-26T22:09:05.330Z,46.69
2019-06-26T22:11:34.669Z,47.07
2019-06-26T22:14:03.936Z,47.36
2019-06-26T22:16:33.273Z,47.86
2019-06-26T22:19:02.465Z,47.80
2019-06-26T22:21:31.721Z,47.68
2019-06-26T22:24:00.922Z,47.26
2019-06-26T22:26:30.493Z,47.08
2019-06-26T22:29:00.043Z,47.83
2019-06-26T22:31:29.235Z,48.68
2019-06-26T22:33:58.577Z,48.51
2019-06-26T22:36:27.773Z,48.86
2019-06-26T22:38:57.024Z,48.43
2019-06-26T22:41:26.221Z,48.25
2019-06-26T22:43:55.472Z,48.24
2019-06-26T22:46:24.670Z,47.97
2019-06-26T22:48:53.986Z,47.65
2019-06-26T22:51:23.175Z,47.81
2019-06-26T22:53:52.434Z,48.37
2019-06-26T22:56:21.938Z,48.19
2019-06-26T22:58:51.208Z,48.65
2019-06-26T23:01:20.740Z,48.66
2019-06-26T23:03:49.986Z,48.61
2019-06-26T23:06:19.300Z,48.70
2019-06-26T23:08:48.578Z,48.70
2019-06-26T23:11:17.839Z,48.52
2019-06-26T23:13:47.173Z,48.27
2019-06-26T23:16:16.428Z,48.15
2019-06-26T23:18:45.630Z,48.09
2019-06-26T23:21:14.879Z,48.34
2019-06-26T23:23:44.143Z,48.95
2019-06-26T23:26:23.377Z,48.98
2019-06-26T23:28:44.411Z,49.29
2019-06-26T23:31:13.982Z,49.45
2019-06-26T23:33:43.558Z,49.68
2019-06-26T23:36:13.035Z,49.95
2019-06-26T23:38:42.299Z,50.06
2019-06-26T23:41:11.503Z,50.16
2019-06-26T23:43:41.048Z,50.33
2019-06-26T23:46:10.625Z,50.47
2019-06-26T23:48:39.878Z,50.41
2019-06-26T23:51:09.165Z,50.39
2019-06-26T23:53:38.702Z,50.30
2019-06-26T23:56:08.007Z,50.15
2019-06-26T23:58:37.340Z,50.09
